بكين, Beijing

03:19 PM CST on وèلهبر 26, 2014 (GMT +0800)
Beijing Capital | Change Station
CLOSE
Current Station
Airport
Location: Beijing,
Elevation: 115 ft
Nearby Weather Stations

Elev 115 ft 40.07 °N, 116.59 °E | Updated 19 minutes ago

Haze
ضبابية
45 °F
Feels Like 45 °F
N
2
ريح متغير ريح from متغير

هذا اليوم
High -- | Low -- °F
--% Chance of Precip.
Yesterday
High -- | Low -- °F
Precip. -- في
7:10 AM 4:50 PM
الهلال الأول, 17% visible
الضغط 29.98 في
وضوح الرؤية 1.1 أميال
سحابات
نقطة الندى 32 °F
الرطوبة 61%
Rainfall 0.00 في
عمق الثلج Not available.
الأشعة فوق البنفسجية Not available.
Pollen Not available.
جودة الهواء Not available.
Flu Activity Not available.
METAR ZBAA 260700Z VRB01MPS 1700 R01/1400N R36R/1300N R36L/1500N HZ NSC 07/00 Q1015 NOSIG

More Conditions Fewer Conditions

الضغط 29.98 في
وضوح الرؤية 1.1 أميال
سحابات
نقطة الندى 32 °F
الرطوبة 61%
Rainfall 0.00 في
عمق الثلج Not available.
الأشعة فوق البنفسجية Not available.
Pollen Not available.
جودة الهواء Not available.
Flu Activity Not available.
METAR ZBAA 260700Z VRB01MPS 1700 R01/1400N R36R/1300N R36L/1500N HZ NSC 07/00 Q1015 NOSIG

More Conditions Fewer Conditions

10-Day Weather Forecast

Almanac

علم الفلك

Nov. 26, 2014 Rise Set
Actual Time
Civil Twilight
Nautical Twilight
Astronomical Twilight
قمر
Length Of Visible Light
طول الیوم
Tomorrow will be .
, % of the Moon is Illuminated

Today's Extremes

Country Highs Country Lows

Community

WunderPhotos

Upload Photos

1,773,694 photos uploaded!

WunderBlogs® & News

Nearby

جودة الهواء

  جودة الهواء AQ Index Pollutant
Not available.

عمق الثلج

Station Depth Elevation

Earthquake Activity

City Distance Mag. Time & Date
Minimum magnitude displayed is 2.5.

Coastal Water Temperatures

مكان درجات الحرارة

Nearby Weather Stations